Time;durP1;ratioP1;P1;durP2;ratioP2;P2;SDS_P1;SDS_P2;PMS_P1;PMS_P2;Temp;Humidity;BMP_temperature;BMP_pressure;BME280_temperature;BME280_humidity;BME280_pressure;Samples;Min_cycle;Max_cycle;Signal;HPM_P1;HPM_P2
2022/07/06 00:00:46;;;;;;;4.72;1.60;;;;;;;;;;5012260;28;20069;-75
2022/07/06 00:03:12;;;;;;;4.68;1.50;;;;;;;;;;4994794;28;20038;-75
2022/07/06 00:05:38;;;;;;;5.03;1.50;;;;;;;;;;5007880;28;20422;-74
2022/07/06 00:08:04;;;;;;;6.30;1.77;;;;;;;;;;5012161;28;20038;-74
2022/07/06 00:10:30;;;;;;;4.45;1.70;;;;;;;;;;4994958;28;20479;-74
2022/07/06 00:12:56;;;;;;;4.68;1.70;;;;;;;;;;4983572;28;20400;-75
2022/07/06 00:15:22;;;;;;;5.10;1.75;;;;;;;;;;4994409;28;20104;-74
2022/07/06 00:17:48;;;;;;;3.15;1.73;;;;;;;;;;4977779;28;20041;-74
2022/07/06 00:20:14;;;;;;;6.20;1.42;;;;;;;;;;5012079;28;20042;-74
2022/07/06 00:22:41;;;;;;;4.70;1.75;;;;;;;;;;5011639;28;20038;-75
2022/07/06 00:25:08;;;;;;;6.65;2.05;;;;;;;;;;5000255;28;20049;-74
2022/07/06 00:27:34;;;;;;;4.65;1.60;;;;;;;;;;4978145;28;20090;-74
2022/07/06 00:30:00;;;;;;;3.03;1.70;;;;;;;;;;4994487;28;20146;-74
2022/07/06 00:32:27;;;;;;;4.43;1.80;;;;;;;;;;4994316;28;20041;-74
2022/07/06 00:34:53;;;;;;;5.65;1.70;;;;;;;;;;5002833;28;20054;-74
2022/07/06 00:37:19;;;;;;;4.20;1.60;;;;;;;;;;5012856;28;20048;-74
2022/07/06 00:39:45;;;;;;;5.10;1.50;;;;;;;;;;4994369;28;20500;-74
2022/07/06 00:42:11;;;;;;;4.13;1.60;;;;;;;;;;5013503;28;20570;-74
2022/07/06 00:44:37;;;;;;;5.25;1.75;;;;;;;;;;4998035;28;20046;-75
2022/07/06 00:47:05;;;;;;;3.28;1.60;;;;;;;;;;4984971;28;20044;-75
2022/07/06 00:52:16;;;;;;;4.57;1.60;;;;;;;;;;4986461;28;20041;-75
2022/07/06 00:54:43;;;;;;;4.15;1.35;;;;;;;;;;5015049;28;20050;-74
2022/07/06 00:57:09;;;;;;;6.28;1.60;;;;;;;;;;4997484;28;20038;-74
2022/07/06 00:59:36;;;;;;;4.38;1.50;;;;;;;;;;5015352;28;20073;-74
2022/07/06 01:02:02;;;;;;;4.38;1.90;;;;;;;;;;4998573;28;20052;-74
2022/07/06 01:04:28;;;;;;;4.93;1.60;;;;;;;;;;4997931;28;20037;-74
2022/07/06 01:06:54;;;;;;;5.15;1.70;;;;;;;;;;4997411;28;20065;-74
2022/07/06 01:09:20;;;;;;;4.90;1.80;;;;;;;;;;5015150;28;20513;-74
2022/07/06 01:11:47;;;;;;;5.20;1.77;;;;;;;;;;4999443;28;20429;-75
2022/07/06 01:14:13;;;;;;;6.90;1.63;;;;;;;;;;5001072;28;20049;-75
2022/07/06 01:16:39;;;;;;;4.22;1.50;;;;;;;;;;4997332;28;20375;-74
2022/07/06 01:19:05;;;;;;;7.28;1.70;;;;;;;;;;5014752;28;20096;-74
2022/07/06 01:21:31;;;;;;;6.68;1.70;;;;;;;;;;5014685;28;20450;-74
2022/07/06 01:23:57;;;;;;;5.93;1.58;;;;;;;;;;4982169;28;20041;-74
2022/07/06 01:26:23;;;;;;;4.47;1.58;;;;;;;;;;5014610;28;20509;-74
2022/07/06 01:28:50;;;;;;;6.28;1.65;;;;;;;;;;5027868;28;20469;-74
2022/07/06 01:31:18;;;;;;;3.72;1.42;;;;;;;;;;5021989;28;20049;-69
2022/07/06 01:33:45;;;;;;;5.40;1.77;;;;;;;;;;5021500;28;20384;-74
2022/07/06 01:36:11;;;;;;;3.50;1.50;;;;;;;;;;5017815;28;20037;-74
2022/07/06 01:38:47;;;;;;;5.65;1.70;;;;;;;;;;5018960;28;20049;-74
2022/07/06 01:41:13;;;;;;;4.88;1.40;;;;;;;;;;5018472;28;20199;-74
2022/07/06 01:43:40;;;;;;;3.25;1.60;;;;;;;;;;5017722;28;20034;-75
2022/07/06 01:46:06;;;;;;;4.07;1.60;;;;;;;;;;5017386;28;20513;-68
2022/07/06 01:48:32;;;;;;;5.18;1.88;;;;;;;;;;4999574;28;20217;-68
2022/07/06 01:50:58;;;;;;;3.60;1.60;;;;;;;;;;5018236;28;20045;-74
2022/07/06 01:53:24;;;;;;;5.85;1.80;;;;;;;;;;5017912;28;20045;-74
2022/07/06 01:55:50;;;;;;;3.17;1.90;;;;;;;;;;5000504;28;20037;-68
2022/07/06 01:58:16;;;;;;;4.85;1.60;;;;;;;;;;5015633;28;20052;-68
2022/07/06 02:00:43;;;;;;;4.70;1.75;;;;;;;;;;5034462;28;20052;-75
2022/07/06 02:03:09;;;;;;;4.15;1.42;;;;;;;;;;5001270;28;20482;-68
2022/07/06 02:05:35;;;;;;;6.10;1.88;;;;;;;;;;5032049;28;20041;-69
2022/07/06 02:08:01;;;;;;;8.32;1.70;;;;;;;;;;5032175;28;20046;-68
2022/07/06 02:10:27;;;;;;;3.80;1.48;;;;;;;;;;5033379;28;20033;-69
2022/07/06 02:12:53;;;;;;;3.80;1.30;;;;;;;;;;5035636;28;20040;-74
2022/07/06 02:15:19;;;;;;;3.78;1.17;;;;;;;;;;5033507;28;20040;-69
2022/07/06 02:17:45;;;;;;;4.07;1.40;;;;;;;;;;5015153;28;20052;-75
2022/07/06 02:20:11;;;;;;;5.55;1.20;;;;;;;;;;4999742;28;20480;-75
2022/07/06 02:22:37;;;;;;;5.10;1.40;;;;;;;;;;5015539;28;20045;-75
2022/07/06 02:25:04;;;;;;;4.22;1.17;;;;;;;;;;5033881;28;20042;-69
2022/07/06 02:27:30;;;;;;;3.90;1.27;;;;;;;;;;5029814;28;20057;-74
2022/07/06 02:29:56;;;;;;;5.13;1.17;;;;;;;;;;5013134;28;20530;-74
2022/07/06 02:32:23;;;;;;;7.30;1.98;;;;;;;;;;5013538;28;20045;-74
2022/07/06 02:34:49;;;;;;;6.13;1.55;;;;;;;;;;5013489;28;20113;-74
2022/07/06 02:37:15;;;;;;;3.78;1.20;;;;;;;;;;4995545;28;20486;-74
2022/07/06 02:39:41;;;;;;;5.68;1.38;;;;;;;;;;5000394;28;20386;-69
2022/07/06 02:42:07;;;;;;;5.13;1.30;;;;;;;;;;5009162;28;20405;-74
2022/07/06 02:44:33;;;;;;;4.18;1.35;;;;;;;;;;5013019;28;20048;-69
2022/07/06 02:46:59;;;;;;;4.07;1.40;;;;;;;;;;5012937;28;20041;-74
2022/07/06 02:49:25;;;;;;;5.18;1.50;;;;;;;;;;5012615;28;20050;-68
2022/07/06 02:51:51;;;;;;;3.00;1.20;;;;;;;;;;5015608;28;20041;-75
2022/07/06 02:54:17;;;;;;;3.65;1.25;;;;;;;;;;4994967;28;20094;-74
2022/07/06 02:56:44;;;;;;;3.47;1.10;;;;;;;;;;4995275;28;20085;-69
2022/07/06 02:59:10;;;;;;;3.53;1.10;;;;;;;;;;5012365;28;20073;-75
2022/07/06 03:01:36;;;;;;;5.05;1.25;;;;;;;;;;5012627;28;20490;-69
2022/07/06 03:04:03;;;;;;;5.28;1.20;;;;;;;;;;4995420;28;20049;-69
2022/07/06 03:06:29;;;;;;;3.38;1.00;;;;;;;;;;4995370;28;20033;-69
2022/07/06 03:08:55;;;;;;;3.00;1.00;;;;;;;;;;4994958;28;20049;-68
2022/07/06 03:11:21;;;;;;;3.97;0.95;;;;;;;;;;4994304;28;20045;-68
2022/07/06 03:13:47;;;;;;;1.92;0.70;;;;;;;;;;4995302;28;20520;-69
2022/07/06 03:16:13;;;;;;;2.83;1.00;;;;;;;;;;5013228;28;20128;-68
2022/07/06 03:18:39;;;;;;;5.60;1.10;;;;;;;;;;5012746;28;20037;-68
2022/07/06 03:21:05;;;;;;;3.85;0.90;;;;;;;;;;5010841;28;20037;-74
2022/07/06 03:23:31;;;;;;;4.55;0.70;;;;;;;;;;4994912;28;20096;-75
2022/07/06 03:25:57;;;;;;;4.68;0.90;;;;;;;;;;4978736;28;20042;-69
2022/07/06 03:28:23;;;;;;;3.63;1.00;;;;;;;;;;5012780;28;20049;-69
2022/07/06 03:30:49;;;;;;;5.93;0.90;;;;;;;;;;4994924;28;20034;-69
2022/07/06 03:33:15;;;;;;;3.63;0.90;;;;;;;;;;4994561;28;20210;-69
2022/07/06 03:35:42;;;;;;;4.85;0.80;;;;;;;;;;5011142;28;20046;-69
2022/07/06 03:38:08;;;;;;;3.85;0.80;;;;;;;;;;4994298;28;20089;-75
2022/07/06 03:40:34;;;;;;;6.28;1.10;;;;;;;;;;5013496;28;20383;-75
2022/07/06 03:43:00;;;;;;;5.03;1.10;;;;;;;;;;4995261;28;20050;-73
2022/07/06 03:45:28;;;;;;;3.30;0.90;;;;;;;;;;4994820;28;20046;-75
2022/07/06 03:47:54;;;;;;;4.13;0.90;;;;;;;;;;4995881;28;20501;-75
2022/07/06 03:50:21;;;;;;;4.88;1.05;;;;;;;;;;5011977;28;20131;-75
2022/07/06 03:52:47;;;;;;;4.88;1.20;;;;;;;;;;4997393;28;20042;-69
2022/07/06 03:55:13;;;;;;;9.07;2.45;;;;;;;;;;5002426;28;20073;-69
2022/07/06 03:57:40;;;;;;;7.90;1.60;;;;;;;;;;5012266;28;20064;-75
2022/07/06 04:00:07;;;;;;;4.80;1.30;;;;;;;;;;4978876;28;20050;-69
2022/07/06 04:02:33;;;;;;;3.17;0.95;;;;;;;;;;5008852;28;20513;-69
2022/07/06 04:04:59;;;;;;;3.72;0.70;;;;;;;;;;5011769;28;20034;-69
2022/07/06 04:07:25;;;;;;;7.18;0.98;;;;;;;;;;4993411;28;20041;-75
2022/07/06 04:09:52;;;;;;;3.95;1.48;;;;;;;;;;5011844;28;20099;-70
2022/07/06 04:12:18;;;;;;;3.45;0.82;;;;;;;;;;5018426;28;20038;-69
2022/07/06 04:14:44;;;;;;;2.50;0.82;;;;;;;;;;4996781;28;20061;-75
2022/07/06 04:19:55;;;;;;;5.43;1.00;;;;;;;;;;5014453;28;20463;-69
2022/07/06 04:22:21;;;;;;;3.33;1.00;;;;;;;;;;5000958;28;20034;-69
2022/07/06 04:24:47;;;;;;;3.58;1.10;;;;;;;;;;5000707;28;20034;-69
2022/07/06 04:27:13;;;;;;;2.53;0.90;;;;;;;;;;5016959;28;20068;-74
2022/07/06 04:29:39;;;;;;;6.03;1.08;;;;;;;;;;5031377;28;20041;-75
2022/07/06 04:32:05;;;;;;;4.18;1.42;;;;;;;;;;5029109;28;20534;-72
2022/07/06 04:34:31;;;;;;;6.13;1.20;;;;;;;;;;5050329;28;20417;-75
2022/07/06 04:36:57;;;;;;;4.88;1.50;;;;;;;;;;5028664;28;20036;-69
2022/07/06 04:39:23;;;;;;;3.83;1.13;;;;;;;;;;5009527;28;20486;-75
2022/07/06 04:41:49;;;;;;;5.32;1.08;;;;;;;;;;5035060;28;20051;-69
2022/07/06 04:44:16;;;;;;;5.30;1.13;;;;;;;;;;5016932;28;20040;-75
2022/07/06 04:46:42;;;;;;;4.97;1.10;;;;;;;;;;5016692;28;20096;-75
2022/07/06 04:49:08;;;;;;;3.70;1.00;;;;;;;;;;5033797;28;20041;-75
2022/07/06 04:51:34;;;;;;;5.80;1.02;;;;;;;;;;5034622;28;20500;-69
2022/07/06 04:54:00;;;;;;;3.95;1.00;;;;;;;;;;5034804;28;20547;-75
2022/07/06 04:56:26;;;;;;;3.50;0.90;;;;;;;;;;5035002;28;20045;-75
2022/07/06 04:58:52;;;;;;;4.85;0.90;;;;;;;;;;5033772;28;20153;-75
2022/07/06 05:01:18;;;;;;;5.22;1.00;;;;;;;;;;5034229;28;20490;-75
2022/07/06 05:03:44;;;;;;;7.40;1.05;;;;;;;;;;5025241;28;20034;-75
2022/07/06 05:06:10;;;;;;;5.20;1.23;;;;;;;;;;5017078;28;20037;-75
2022/07/06 05:08:38;;;;;;;2.83;0.85;;;;;;;;;;5016752;28;20124;-75
2022/07/06 05:11:04;;;;;;;4.22;0.80;;;;;;;;;;5028768;28;20047;-75
2022/07/06 05:13:30;;;;;;;4.03;0.90;;;;;;;;;;5016015;28;20448;-75
2022/07/06 05:15:56;;;;;;;4.20;0.80;;;;;;;;;;5041939;28;20041;-75
2022/07/06 05:18:22;;;;;;;2.92;0.70;;;;;;;;;;5024485;28;20048;-75
2022/07/06 05:20:48;;;;;;;3.40;0.80;;;;;;;;;;5016088;28;20042;-75
2022/07/06 05:23:14;;;;;;;4.78;0.77;;;;;;;;;;5007594;28;20482;-75
2022/07/06 05:25:40;;;;;;;2.72;0.70;;;;;;;;;;5026788;28;20481;-75
2022/07/06 05:28:06;;;;;;;3.47;0.60;;;;;;;;;;5025400;28;20049;-74
2022/07/06 05:30:32;;;;;;;5.00;0.88;;;;;;;;;;5004494;28;20481;-75
2022/07/06 05:32:58;;;;;;;2.70;0.60;;;;;;;;;;5020182;28;20130;-75
2022/07/06 05:35:25;;;;;;;3.63;0.90;;;;;;;;;;4985116;28;20045;-75
2022/07/06 05:37:51;;;;;;;3.53;0.63;;;;;;;;;;4993018;28;20042;-75
2022/07/06 05:40:17;;;;;;;2.47;0.70;;;;;;;;;;5018844;28;20109;-71
2022/07/06 05:42:43;;;;;;;4.32;0.55;;;;;;;;;;4996509;28;20081;-71
2022/07/06 05:45:09;;;;;;;3.55;0.80;;;;;;;;;;4980467;28;20398;-71
2022/07/06 05:50:20;;;;;;;6.22;1.10;;;;;;;;;;4996024;28;20444;-71
2022/07/06 05:52:56;;;;;;;2.75;1.00;;;;;;;;;;5002210;28;20411;-75
2022/07/06 05:55:22;;;;;;;3.95;0.73;;;;;;;;;;4996772;28;20050;-75
2022/07/06 05:57:50;;;;;;;4.47;0.75;;;;;;;;;;4996995;28;20053;-75
2022/07/06 06:00:16;;;;;;;4.45;0.60;;;;;;;;;;5014880;28;20510;-71
2022/07/06 06:02:42;;;;;;;2.20;0.57;;;;;;;;;;4978210;28;20189;-70
2022/07/06 06:05:12;;;;;;;3.15;0.60;;;;;;;;;;4980732;28;20030;-71
2022/07/06 06:07:39;;;;;;;2.45;0.65;;;;;;;;;;5027108;28;20148;-75
2022/07/06 06:10:05;;;;;;;3.15;0.50;;;;;;;;;;5021742;28;20068;-70
2022/07/06 06:12:32;;;;;;;2.97;0.63;;;;;;;;;;5014066;28;20079;-75
2022/07/06 06:15:01;;;;;;;4.43;0.70;;;;;;;;;;5012327;28;20088;-75
2022/07/06 06:17:27;;;;;;;3.30;0.57;;;;;;;;;;5013899;28;20041;-72
2022/07/06 06:19:53;;;;;;;2.20;0.50;;;;;;;;;;5019077;28;20077;-75
2022/07/06 06:22:19;;;;;;;2.72;0.70;;;;;;;;;;5012557;28;20037;-75
2022/07/06 06:24:45;;;;;;;5.30;0.70;;;;;;;;;;5007415;28;20045;-74
2022/07/06 06:27:11;;;;;;;3.00;0.60;;;;;;;;;;5003943;28;20038;-75
2022/07/06 06:29:38;;;;;;;1.42;0.50;;;;;;;;;;5000413;28;20120;-75
2022/07/06 06:32:07;;;;;;;2.60;0.70;;;;;;;;;;5011140;28;20053;-70
2022/07/06 06:34:33;;;;;;;3.08;0.50;;;;;;;;;;5001099;28;20056;-75
2022/07/06 06:36:59;;;;;;;3.72;0.70;;;;;;;;;;5013778;28;20514;-75
2022/07/06 06:39:25;;;;;;;1.45;0.50;;;;;;;;;;5020689;28;20046;-71
2022/07/06 06:41:51;;;;;;;2.72;0.57;;;;;;;;;;5012834;28;20038;-71
2022/07/06 06:44:17;;;;;;;4.93;0.73;;;;;;;;;;4991742;28;20037;-74
2022/07/06 06:46:43;;;;;;;4.60;0.70;;;;;;;;;;5010126;28;20395;-75
2022/07/06 06:49:10;;;;;;;2.88;0.75;;;;;;;;;;4994225;28;20045;-74
2022/07/06 06:51:38;;;;;;;2.90;0.52;;;;;;;;;;4980485;28;20403;-74
2022/07/06 06:54:04;;;;;;;1.52;0.45;;;;;;;;;;4988438;28;20045;-73
2022/07/06 06:56:30;;;;;;;1.73;0.50;;;;;;;;;;4998273;28;20061;-74
2022/07/06 06:58:56;;;;;;;1.98;0.47;;;;;;;;;;4994721;28;20124;-76
2022/07/06 07:01:23;;;;;;;2.95;0.60;;;;;;;;;;4994644;28;20050;-78
2022/07/06 07:03:49;;;;;;;2.40;0.70;;;;;;;;;;4994750;28;20034;-80
2022/07/06 07:06:15;;;;;;;1.98;0.57;;;;;;;;;;4993862;28;20076;-82
2022/07/06 07:08:41;;;;;;;3.85;0.63;;;;;;;;;;4977248;28;20042;-82
2022/07/06 07:11:07;;;;;;;4.38;0.50;;;;;;;;;;4999156;28;20120;-73
2022/07/06 07:13:33;;;;;;;2.90;0.52;;;;;;;;;;4995309;28;20574;-76
2022/07/06 07:15:59;;;;;;;4.22;1.00;;;;;;;;;;4998719;28;20446;-75
2022/07/06 07:18:25;;;;;;;3.53;0.63;;;;;;;;;;4994622;28;20038;-77
2022/07/06 07:20:51;;;;;;;2.45;0.50;;;;;;;;;;4978667;28;20045;-74
2022/07/06 07:23:17;;;;;;;1.92;0.35;;;;;;;;;;5011858;28;20457;-77
2022/07/06 07:25:43;;;;;;;2.63;0.60;;;;;;;;;;4993467;28;20042;-77
2022/07/06 07:28:10;;;;;;;2.72;0.57;;;;;;;;;;5003553;28;20053;-76
2022/07/06 07:30:36;;;;;;;4.45;0.80;;;;;;;;;;4997725;28;20029;-76
2022/07/06 07:33:02;;;;;;;2.03;0.50;;;;;;;;;;5023717;28;20041;-77
2022/07/06 07:35:28;;;;;;;3.05;0.50;;;;;;;;;;5002034;28;20092;-80
2022/07/06 07:37:54;;;;;;;5.32;0.77;;;;;;;;;;4994015;28;20037;-76
2022/07/06 07:40:21;;;;;;;4.13;1.00;;;;;;;;;;4997051;28;20046;-76
2022/07/06 07:42:47;;;;;;;2.47;0.55;;;;;;;;;;4993759;28;20049;-74
2022/07/06 07:45:13;;;;;;;3.15;0.43;;;;;;;;;;4994787;28;20049;-75
2022/07/06 07:47:39;;;;;;;3.22;0.60;;;;;;;;;;5013179;28;20511;-75
2022/07/06 07:50:06;;;;;;;3.05;0.55;;;;;;;;;;4994662;28;20038;-75
2022/07/06 07:52:32;;;;;;;3.00;0.43;;;;;;;;;;5010417;28;20048;-75
2022/07/06 07:54:59;;;;;;;3.38;0.60;;;;;;;;;;5015083;28;20045;-75
2022/07/06 07:57:25;;;;;;;3.60;0.60;;;;;;;;;;5002515;28;20088;-76
2022/07/06 07:59:51;;;;;;;2.67;0.70;;;;;;;;;;5004410;28;20048;-76
2022/07/06 08:02:17;;;;;;;3.08;0.52;;;;;;;;;;4996990;28;20101;-75
2022/07/06 08:04:43;;;;;;;4.10;0.75;;;;;;;;;;4995974;28;20129;-77
2022/07/06 08:07:09;;;;;;;4.10;0.70;;;;;;;;;;5000601;28;20064;-78
2022/07/06 08:09:35;;;;;;;1.23;0.40;;;;;;;;;;5013986;28;20096;-77
2022/07/06 08:12:01;;;;;;;2.20;0.50;;;;;;;;;;5014695;28;20394;-77
2022/07/06 08:14:27;;;;;;;3.25;0.50;;;;;;;;;;5013617;28;20045;-72
2022/07/06 08:16:53;;;;;;;1.75;0.40;;;;;;;;;;4997989;28;20038;-76
2022/07/06 08:19:20;;;;;;;3.33;0.50;;;;;;;;;;4982688;28;20034;-74
2022/07/06 08:21:46;;;;;;;1.90;0.50;;;;;;;;;;4999619;28;20042;-76
2022/07/06 08:24:12;;;;;;;3.25;0.43;;;;;;;;;;4998007;28;20100;-74
2022/07/06 08:26:38;;;;;;;2.88;0.75;;;;;;;;;;5000097;28;20042;-77
2022/07/06 08:29:04;;;;;;;4.65;0.70;;;;;;;;;;5014021;28;20053;-76
2022/07/06 08:31:31;;;;;;;2.92;0.60;;;;;;;;;;4994553;28;20053;-75
2022/07/06 08:33:58;;;;;;;3.97;0.50;;;;;;;;;;4987680;28;20057;-77
2022/07/06 08:36:24;;;;;;;7.47;0.70;;;;;;;;;;4999968;28;20045;-75
2022/07/06 08:38:50;;;;;;;3.10;0.60;;;;;;;;;;4987696;28;20056;-77
2022/07/06 08:41:17;;;;;;;1.67;0.57;;;;;;;;;;4985613;28;20037;-77
2022/07/06 08:43:43;;;;;;;2.60;0.63;;;;;;;;;;5013842;28;20095;-77
2022/07/06 08:46:09;;;;;;;2.90;0.50;;;;;;;;;;4994527;28;20092;-76
2022/07/06 08:48:37;;;;;;;2.30;0.50;;;;;;;;;;5009134;28;20504;-77
2022/07/06 08:51:04;;;;;;;3.08;0.52;;;;;;;;;;5002270;28;20034;-77
2022/07/06 08:53:34;;;;;;;3.05;0.50;;;;;;;;;;5012426;28;20520;-77
2022/07/06 08:56:01;;;;;;;2.15;0.50;;;;;;;;;;5006916;28;20042;-74
2022/07/06 08:58:28;;;;;;;3.20;0.50;;;;;;;;;;4980603;28;20471;-74
2022/07/06 09:00:58;;;;;;;2.08;0.50;;;;;;;;;;5008067;28;20029;-73
2022/07/06 09:03:24;;;;;;;3.33;0.52;;;;;;;;;;5005534;28;20048;-74
2022/07/06 09:05:50;;;;;;;3.97;0.60;;;;;;;;;;5004987;28;20042;-73
2022/07/06 09:08:18;;;;;;;2.88;0.50;;;;;;;;;;5003290;28;20084;-74
2022/07/06 09:10:44;;;;;;;1.48;0.50;;;;;;;;;;5008387;28;20044;-73
2022/07/06 09:13:10;;;;;;;2.38;0.43;;;;;;;;;;5000710;28;20049;-74
2022/07/06 09:15:40;;;;;;;2.00;0.40;;;;;;;;;;5004913;28;20054;-72
2022/07/06 09:18:07;;;;;;;1.88;0.40;;;;;;;;;;5000777;28;20041;-71
2022/07/06 09:20:34;;;;;;;2.58;0.50;;;;;;;;;;5003439;28;20041;-72
2022/07/06 09:23:05;;;;;;;3.92;0.40;;;;;;;;;;4995718;28;20042;-72
2022/07/06 09:25:31;;;;;;;4.43;0.70;;;;;;;;;;4989010;28;20041;-74
2022/07/06 09:27:58;;;;;;;1.88;0.38;;;;;;;;;;5014873;28;20060;-78
2022/07/06 09:30:26;;;;;;;1.80;0.40;;;;;;;;;;5027570;28;20037;-78
2022/07/06 09:32:54;;;;;;;2.70;0.70;;;;;;;;;;5021809;28;20045;-77
2022/07/06 09:35:25;;;;;;;2.30;0.60;;;;;;;;;;5024676;28;20490;-73
2022/07/06 09:38:00;;;;;;;1.98;0.70;;;;;;;;;;5032579;28;20128;-72
2022/07/06 09:40:26;;;;;;;1.77;0.45;;;;;;;;;;5000008;28;20041;-72
2022/07/06 09:43:07;;;;;;;3.88;0.52;;;;;;;;;;5016163;28;20553;-74
2022/07/06 09:45:34;;;;;;;1.60;0.43;;;;;;;;;;5032325;28;20034;-74
2022/07/06 09:48:06;;;;;;;1.40;0.32;;;;;;;;;;5035838;28;20030;-73
2022/07/06 09:50:39;;;;;;;3.22;0.60;;;;;;;;;;5028036;28;20502;-71
2022/07/06 09:53:05;;;;;;;3.13;0.63;;;;;;;;;;5032250;28;20037;-74
2022/07/06 09:55:31;;;;;;;2.63;0.60;;;;;;;;;;5025849;28;20132;-74
2022/07/06 09:57:58;;;;;;;2.72;0.40;;;;;;;;;;5020233;28;20048;-74
2022/07/06 10:00:24;;;;;;;1.25;0.40;;;;;;;;;;5026923;28;20164;-73
2022/07/06 10:02:51;;;;;;;0.82;0.35;;;;;;;;;;5019690;28;20044;-78
2022/07/06 10:05:18;;;;;;;3.45;0.60;;;;;;;;;;5024957;28;20041;-75
2022/07/06 10:07:46;;;;;;;2.63;0.57;;;;;;;;;;5033410;28;20042;-77
2022/07/06 10:10:12;;;;;;;1.75;0.40;;;;;;;;;;5015697;28;20052;-78
2022/07/06 10:12:41;;;;;;;2.75;0.50;;;;;;;;;;5015665;28;20041;-76
2022/07/06 10:15:07;;;;;;;2.45;0.57;;;;;;;;;;5015408;28;20038;-78
2022/07/06 10:17:33;;;;;;;3.35;0.45;;;;;;;;;;4998691;28;20065;-76
2022/07/06 10:19:59;;;;;;;2.95;0.40;;;;;;;;;;5043538;28;20033;-71
2022/07/06 10:22:26;;;;;;;3.17;0.43;;;;;;;;;;5013318;28;20124;-73
2022/07/06 10:24:52;;;;;;;2.88;0.47;;;;;;;;;;5010891;28;20037;-74
2022/07/06 10:27:19;;;;;;;1.55;0.40;;;;;;;;;;5021888;28;20490;-73
2022/07/06 10:29:45;;;;;;;2.97;0.52;;;;;;;;;;5015376;28;20426;-72
2022/07/06 10:32:11;;;;;;;4.95;0.50;;;;;;;;;;5012468;28;20081;-76
2022/07/06 10:34:37;;;;;;;3.45;0.85;;;;;;;;;;4992428;28;20041;-77
2022/07/06 10:37:03;;;;;;;6.72;0.60;;;;;;;;;;5014806;28;20084;-77
2022/07/06 10:42:39;;;;;;;1.70;0.50;;;;;;;;;;5015114;28;20081;-77
2022/07/06 10:45:05;;;;;;;1.17;0.40;;;;;;;;;;5029037;28;20033;-77
2022/07/06 10:47:31;;;;;;;1.40;0.50;;;;;;;;;;5011015;28;20089;-78
2022/07/06 10:50:01;;;;;;;3.72;0.60;;;;;;;;;;5012229;28;20043;-78
2022/07/06 10:52:45;;;;;;;3.75;0.70;;;;;;;;;;5014503;28;20053;-78
2022/07/06 10:55:30;;;;;;;2.90;0.73;;;;;;;;;;5009347;28;20061;-76
2022/07/06 10:57:56;;;;;;;3.17;0.70;;;;;;;;;;5018838;28;20053;-77
2022/07/06 11:00:22;;;;;;;2.35;0.50;;;;;;;;;;5014768;28;20287;-76
2022/07/06 11:02:49;;;;;;;5.43;0.80;;;;;;;;;;5003066;28;20462;-77
2022/07/06 11:05:41;;;;;;;2.33;0.60;;;;;;;;;;5020894;28;20033;-79
2022/07/06 11:08:10;;;;;;;3.72;0.70;;;;;;;;;;5005539;28;20064;-75
2022/07/06 11:10:48;;;;;;;3.45;0.50;;;;;;;;;;5027938;28;20053;-78
2022/07/06 11:13:27;;;;;;;3.38;0.82;;;;;;;;;;5014576;28;20199;-78
2022/07/06 11:16:01;;;;;;;2.35;0.70;;;;;;;;;;5029629;28;20055;-72
2022/07/06 11:18:27;;;;;;;2.08;0.50;;;;;;;;;;5025989;28;20437;-78
2022/07/06 11:21:12;;;;;;;2.65;0.60;;;;;;;;;;4999226;28;20045;-77
2022/07/06 11:23:38;;;;;;;1.42;0.50;;;;;;;;;;5026812;28;20056;-78
2022/07/06 11:26:05;;;;;;;1.63;0.50;;;;;;;;;;5001658;28;20128;-76
2022/07/06 11:28:31;;;;;;;1.27;0.50;;;;;;;;;;5011505;28;20053;-75
2022/07/06 11:30:57;;;;;;;1.85;0.40;;;;;;;;;;5012687;28;20049;-73
2022/07/06 11:33:30;;;;;;;1.73;0.43;;;;;;;;;;5030801;28;20037;-72
2022/07/06 11:36:16;;;;;;;3.63;0.82;;;;;;;;;;5014563;28;20044;-73
2022/07/06 11:38:43;;;;;;;1.27;0.40;;;;;;;;;;5003431;28;20037;-70
2022/07/06 11:41:09;;;;;;;2.28;0.60;;;;;;;;;;5029172;28;20029;-73
2022/07/06 11:43:37;;;;;;;3.67;0.50;;;;;;;;;;5020255;28;20128;-71
2022/07/06 11:46:03;;;;;;;2.13;0.50;;;;;;;;;;5026845;28;20045;-76
2022/07/06 11:48:29;;;;;;;1.95;0.50;;;;;;;;;;5026967;28;20040;-78
2022/07/06 11:51:05;;;;;;;2.92;0.52;;;;;;;;;;5028344;28;20034;-76
2022/07/06 11:53:31;;;;;;;2.00;0.55;;;;;;;;;;5014341;28;20034;-78
2022/07/06 11:56:03;;;;;;;1.77;0.50;;;;;;;;;;5006858;28;20117;-71
2022/07/06 11:58:31;;;;;;;3.95;0.65;;;;;;;;;;5027520;28;20053;-71
2022/07/06 12:01:07;;;;;;;4.88;0.63;;;;;;;;;;5015285;28;20068;-77
2022/07/06 12:03:34;;;;;;;1.63;0.55;;;;;;;;;;5015960;28;20099;-70
2022/07/06 12:06:01;;;;;;;2.63;0.50;;;;;;;;;;5034793;28;20052;-71
2022/07/06 12:08:27;;;;;;;3.50;0.60;;;;;;;;;;5030193;28;20077;-71
2022/07/06 12:10:54;;;;;;;7.47;0.80;;;;;;;;;;5038023;28;20037;-72
2022/07/06 12:13:20;;;;;;;1.55;0.60;;;;;;;;;;5014186;28;20091;-71
2022/07/06 12:15:46;;;;;;;3.85;0.60;;;;;;;;;;5027148;28;20140;-72
2022/07/06 12:18:12;;;;;;;2.42;0.60;;;;;;;;;;5013911;28;20049;-70
2022/07/06 12:20:38;;;;;;;2.08;0.60;;;;;;;;;;5025542;28;20044;-71
2022/07/06 12:23:05;;;;;;;6.97;0.77;;;;;;;;;;5030559;28;20046;-71
2022/07/06 12:25:32;;;;;;;4.80;0.80;;;;;;;;;;5022302;28;20033;-72
2022/07/06 12:27:59;;;;;;;5.90;0.75;;;;;;;;;;5024904;28;20053;-72
2022/07/06 12:30:25;;;;;;;2.75;0.60;;;;;;;;;;5017252;28;20053;-77
2022/07/06 12:33:10;;;;;;;2.20;0.50;;;;;;;;;;5012643;28;20045;-70
2022/07/06 12:35:36;;;;;;;2.47;0.70;;;;;;;;;;5023100;28;20049;-71
2022/07/06 12:38:02;;;;;;;3.90;0.60;;;;;;;;;;5019683;28;20045;-71
2022/07/06 12:40:29;;;;;;;3.72;0.52;;;;;;;;;;5020664;28;20043;-70
2022/07/06 12:42:55;;;;;;;2.28;0.55;;;;;;;;;;5017967;28;20046;-76
2022/07/06 12:45:31;;;;;;;2.75;0.80;;;;;;;;;;5044662;28;20080;-70
2022/07/06 12:48:01;;;;;;;5.40;0.70;;;;;;;;;;5021770;28;20045;-75
2022/07/06 12:50:32;;;;;;;11.85;1.13;;;;;;;;;;5001392;28;20124;-78
2022/07/06 12:52:58;;;;;;;4.85;0.60;;;;;;;;;;5048190;28;20049;-73
2022/07/06 12:55:28;;;;;;;4.30;0.60;;;;;;;;;;5030516;28;20037;-76
2022/07/06 12:57:54;;;;;;;1.35;0.50;;;;;;;;;;5017483;28;20054;-71
2022/07/06 13:00:21;;;;;;;9.00;0.90;;;;;;;;;;5025739;28;20103;-75
2022/07/06 13:02:48;;;;;;;3.03;0.52;;;;;;;;;;4999685;28;20046;-76
2022/07/06 13:05:16;;;;;;;3.95;0.60;;;;;;;;;;5017988;28;20084;-75
2022/07/06 13:07:49;;;;;;;1.38;0.57;;;;;;;;;;5021050;28;20125;-75
2022/07/06 13:10:16;;;;;;;3.03;0.70;;;;;;;;;;5033654;28;20053;-75
2022/07/06 13:12:42;;;;;;;1.23;0.50;;;;;;;;;;5020648;28;20041;-75
2022/07/06 13:15:09;;;;;;;2.55;0.63;;;;;;;;;;5022645;28;20042;-76
2022/07/06 13:18:05;;;;;;;1.05;0.40;;;;;;;;;;5040349;28;20404;-77
2022/07/06 13:20:31;;;;;;;1.30;0.60;;;;;;;;;;5011164;28;20131;-76
2022/07/06 13:22:57;;;;;;;2.33;0.50;;;;;;;;;;5039853;28;20045;-76
2022/07/06 13:25:23;;;;;;;3.03;0.60;;;;;;;;;;5005913;28;20092;-78
2022/07/06 13:27:49;;;;;;;2.78;0.52;;;;;;;;;;5018242;28;20053;-70
2022/07/06 13:30:15;;;;;;;3.10;0.95;;;;;;;;;;5002575;28;20045;-70
2022/07/06 13:32:41;;;;;;;2.15;0.50;;;;;;;;;;5044905;28;20397;-74
2022/07/06 13:35:09;;;;;;;1.42;0.50;;;;;;;;;;5007907;28;20069;-73
2022/07/06 13:37:35;;;;;;;4.60;0.68;;;;;;;;;;5028729;28;20482;-70
2022/07/06 13:40:02;;;;;;;3.35;0.70;;;;;;;;;;5019814;28;20045;-71
2022/07/06 13:42:28;;;;;;;1.60;0.65;;;;;;;;;;5017716;28;20048;-71
2022/07/06 13:44:54;;;;;;;2.97;0.70;;;;;;;;;;5015488;28;20045;-69
2022/07/06 13:47:20;;;;;;;3.08;0.70;;;;;;;;;;5048761;28;20580;-70
2022/07/06 13:49:47;;;;;;;3.70;0.70;;;;;;;;;;5003138;28;20048;-70
2022/07/06 13:52:13;;;;;;;2.67;0.70;;;;;;;;;;4999451;28;20057;-72
2022/07/06 13:54:39;;;;;;;1.65;0.80;;;;;;;;;;5039047;28;20386;-69
2022/07/06 13:57:06;;;;;;;3.33;0.80;;;;;;;;;;5041297;28;20048;-71
2022/07/06 13:59:33;;;;;;;2.40;0.80;;;;;;;;;;5014393;28;20053;-70
2022/07/06 14:01:59;;;;;;;3.97;0.80;;;;;;;;;;5015762;28;20049;-71
2022/07/06 14:04:26;;;;;;;2.92;0.90;;;;;;;;;;5015341;28;20033;-73
2022/07/06 14:06:52;;;;;;;2.95;1.23;;;;;;;;;;5022230;28;20049;-76
2022/07/06 14:09:18;;;;;;;2.92;1.10;;;;;;;;;;5014040;28;20034;-75
2022/07/06 14:11:44;;;;;;;4.05;1.20;;;;;;;;;;5015855;28;20402;-76
2022/07/06 14:14:10;;;;;;;4.85;0.80;;;;;;;;;;5015144;28;20041;-77
2022/07/06 14:16:36;;;;;;;4.32;0.80;;;;;;;;;;5022468;28;20520;-76
2022/07/06 14:19:02;;;;;;;1.70;0.70;;;;;;;;;;5020678;28;20191;-77
2022/07/06 14:21:29;;;;;;;5.03;1.08;;;;;;;;;;5014986;28;20541;-76
2022/07/06 14:23:55;;;;;;;3.17;0.80;;;;;;;;;;5049151;28;20037;-77
2022/07/06 14:26:21;;;;;;;3.22;0.90;;;;;;;;;;5010288;28;20040;-70
2022/07/06 14:29:05;;;;;;;4.22;0.90;;;;;;;;;;5027590;28;20125;-73
2022/07/06 14:31:31;;;;;;;3.92;0.90;;;;;;;;;;4995582;28;20041;-73
2022/07/06 14:33:57;;;;;;;3.90;1.00;;;;;;;;;;4999640;28;20045;-76
2022/07/06 14:36:23;;;;;;;3.03;0.90;;;;;;;;;;4998358;28;20477;-78
2022/07/06 14:38:49;;;;;;;5.55;1.17;;;;;;;;;;4996364;28;20069;-76
2022/07/06 14:41:16;;;;;;;2.80;1.00;;;;;;;;;;5012951;28;20042;-75
2022/07/06 14:43:42;;;;;;;2.97;1.00;;;;;;;;;;4995360;28;20124;-77
2022/07/06 14:46:08;;;;;;;1.83;0.80;;;;;;;;;;4996514;28;20037;-78
2022/07/06 14:48:34;;;;;;;3.22;1.20;;;;;;;;;;5004890;28;20120;-79
2022/07/06 14:51:00;;;;;;;3.92;1.02;;;;;;;;;;5007072;28;20038;-78
2022/07/06 14:53:26;;;;;;;2.92;0.90;;;;;;;;;;4995485;28;20495;-79